createdAt,value
2023-01-06T00:01:16.133Z,7.60
2023-01-06T00:03:44.817Z,5.82
2023-01-06T00:06:14.958Z,3.83
2023-01-06T00:08:43.583Z,4.22
2023-01-06T00:11:13.996Z,3.22
2023-01-06T00:13:42.879Z,5.70
2023-01-06T00:16:13.267Z,3.60
2023-01-06T00:18:42.041Z,3.83
2023-01-06T00:21:11.103Z,4.90
2023-01-06T00:23:41.548Z,4.03
2023-01-06T00:26:11.098Z,4.68
2023-01-06T00:28:39.731Z,3.65
2023-01-06T00:31:10.117Z,4.47
2023-01-06T00:33:38.971Z,3.33
2023-01-06T00:36:08.821Z,3.83
2023-01-06T00:38:37.461Z,4.53
2023-01-06T00:41:29.211Z,5.82
2023-01-06T00:43:58.081Z,3.50
2023-01-06T00:46:29.500Z,4.05
2023-01-06T00:49:05.120Z,3.35
2023-01-06T00:51:34.430Z,3.20
2023-01-06T00:54:03.076Z,2.47
2023-01-06T00:56:33.256Z,5.75
2023-01-06T00:59:03.761Z,3.78
2023-01-06T01:01:32.550Z,2.95
2023-01-06T01:04:01.181Z,3.55
2023-01-06T01:06:29.809Z,2.97
2023-01-06T01:09:00.247Z,4.07
2023-01-06T01:11:55.024Z,3.05
2023-01-06T01:14:25.140Z,2.95
2023-01-06T01:16:53.673Z,3.17
2023-01-06T01:19:22.374Z,2.95
2023-01-06T01:21:51.196Z,3.22
2023-01-06T01:24:19.837Z,2.67
2023-01-06T01:26:48.524Z,3.03
2023-01-06T01:29:18.491Z,4.35
2023-01-06T01:31:48.454Z,3.10
2023-01-06T01:34:17.743Z,2.90
2023-01-06T01:36:47.561Z,4.75
2023-01-06T01:39:17.816Z,3.17
2023-01-06T01:41:46.696Z,4.70
2023-01-06T01:45:10.167Z,2.58
2023-01-06T01:47:45.803Z,2.95
2023-01-06T01:50:29.783Z,3.15
2023-01-06T01:53:02.566Z,4.28
2023-01-06T01:55:31.242Z,2.85
2023-01-06T01:58:02.383Z,3.55
2023-01-06T02:00:30.984Z,2.67
2023-01-06T02:03:00.994Z,2.42
2023-01-06T02:05:29.829Z,4.32
2023-01-06T02:07:58.681Z,2.85
2023-01-06T02:10:27.379Z,4.72
2023-01-06T02:12:59.383Z,3.35
2023-01-06T02:15:29.339Z,3.38
2023-01-06T02:18:31.334Z,2.65
2023-01-06T02:21:17.923Z,3.08
2023-01-06T02:24:25.983Z,2.65
2023-01-06T02:27:36.649Z,2.30
2023-01-06T02:30:53.936Z,5.20
2023-01-06T02:33:27.704Z,2.72
2023-01-06T02:36:08.192Z,2.30
2023-01-06T02:38:48.716Z,2.15
2023-01-06T02:41:28.829Z,2.25
2023-01-06T02:44:02.477Z,2.10
2023-01-06T02:46:54.209Z,2.10
2023-01-06T02:49:28.851Z,2.92
2023-01-06T02:52:00.339Z,3.22
2023-01-06T02:54:33.795Z,2.92
2023-01-06T02:57:06.773Z,6.60
2023-01-06T02:59:37.491Z,3.78
2023-01-06T03:02:06.327Z,4.63
2023-01-06T03:04:38.789Z,2.97
2023-01-06T03:07:07.652Z,2.83
2023-01-06T03:09:37.715Z,3.47
2023-01-06T03:12:09.766Z,2.30
2023-01-06T03:14:40.713Z,3.33
2023-01-06T03:17:09.290Z,2.20
2023-01-06T03:19:39.224Z,2.47
2023-01-06T03:22:07.884Z,4.75
2023-01-06T03:24:37.182Z,2.20
2023-01-06T03:27:05.971Z,2.95
2023-01-06T03:29:34.566Z,2.50
2023-01-06T03:32:04.665Z,3.22
2023-01-06T03:34:45.752Z,2.08
2023-01-06T03:37:22.389Z,6.20
2023-01-06T03:39:57.882Z,3.03
2023-01-06T03:42:48.470Z,2.28
2023-01-06T03:45:30.164Z,1.90
2023-01-06T03:48:03.313Z,3.08
2023-01-06T03:50:36.753Z,1.88
2023-01-06T03:53:14.191Z,2.00
2023-01-06T03:55:42.833Z,3.25
2023-01-06T03:58:11.400Z,1.90
2023-01-06T04:00:40.188Z,2.35
2023-01-06T04:03:09.820Z,1.83
2023-01-06T04:05:40.038Z,2.10
2023-01-06T04:08:08.618Z,2.67
2023-01-06T04:10:37.489Z,2.20
2023-01-06T04:13:05.054Z,2.30
2023-01-06T04:15:33.796Z,1.98
2023-01-06T04:18:02.437Z,2.08
2023-01-06T04:20:31.824Z,1.80
2023-01-06T04:23:01.808Z,2.05
2023-01-06T04:25:30.352Z,2.08
2023-01-06T04:27:58.886Z,3.45
2023-01-06T04:30:27.525Z,1.60
2023-01-06T04:32:56.112Z,2.10
2023-01-06T04:35:24.773Z,2.60
2023-01-06T04:37:53.308Z,2.03
2023-01-06T04:40:23.487Z,3.50
2023-01-06T04:43:06.868Z,1.90
2023-01-06T04:45:36.222Z,1.80
2023-01-06T04:48:05.060Z,2.28
2023-01-06T04:50:33.643Z,2.00
2023-01-06T04:53:02.376Z,2.00
2023-01-06T04:55:32.359Z,2.00
2023-01-06T04:58:00.974Z,1.83
2023-01-06T05:00:29.761Z,2.05
2023-01-06T05:02:58.410Z,2.08
2023-01-06T05:05:27.056Z,1.75
2023-01-06T05:07:55.823Z,1.80
2023-01-06T05:10:24.640Z,1.90
2023-01-06T05:12:54.727Z,2.00
2023-01-06T05:15:23.449Z,1.88
2023-01-06T05:17:52.092Z,1.90
2023-01-06T05:20:20.794Z,1.77
2023-01-06T05:22:49.750Z,1.80
2023-01-06T05:25:18.466Z,1.80
2023-01-06T05:27:47.083Z,1.70
2023-01-06T05:30:17.252Z,1.88
2023-01-06T05:32:46.064Z,2.03
2023-01-06T05:35:14.662Z,1.80
2023-01-06T05:37:43.677Z,1.80
2023-01-06T05:40:13.096Z,1.70
2023-01-06T05:42:42.068Z,1.60
2023-01-06T05:45:12.818Z,1.70
2023-01-06T05:47:42.909Z,2.53
2023-01-06T05:50:11.631Z,1.92
2023-01-06T05:52:40.260Z,2.13
2023-01-06T05:55:10.247Z,1.60
2023-01-06T05:57:39.209Z,1.80
2023-01-06T06:00:09.629Z,1.60
2023-01-06T06:02:38.299Z,1.85
2023-01-06T06:05:09.323Z,2.15
2023-01-06T06:07:38.030Z,2.13
2023-01-06T06:10:08.266Z,1.60
2023-01-06T06:12:37.310Z,1.63
2023-01-06T06:15:07.104Z,1.80
2023-01-06T06:17:35.743Z,2.70
2023-01-06T06:20:04.656Z,1.92
2023-01-06T06:22:34.685Z,2.97
2023-01-06T06:25:03.414Z,1.80
2023-01-06T06:27:32.130Z,1.80
2023-01-06T06:30:00.739Z,1.90
2023-01-06T06:32:31.798Z,1.67
2023-01-06T06:35:00.382Z,2.20
2023-01-06T06:37:29.157Z,2.92
2023-01-06T06:39:59.057Z,2.25
2023-01-06T06:42:27.734Z,1.80
2023-01-06T06:44:56.391Z,1.70
2023-01-06T06:47:25.005Z,2.35
2023-01-06T06:49:53.616Z,1.90
2023-01-06T06:52:22.520Z,2.03
2023-01-06T06:54:51.101Z,1.73
2023-01-06T06:57:21.086Z,1.73
2023-01-06T06:59:49.753Z,1.80
2023-01-06T07:02:18.622Z,1.67
2023-01-06T07:04:47.344Z,2.05
2023-01-06T07:07:16.141Z,2.25
2023-01-06T07:09:44.660Z,2.80
2023-01-06T07:12:13.560Z,4.47
2023-01-06T07:14:43.579Z,1.90
2023-01-06T07:17:12.291Z,2.13
2023-01-06T07:19:40.862Z,2.05
2023-01-06T07:22:09.510Z,4.97
2023-01-06T07:24:38.259Z,2.25
2023-01-06T07:27:06.874Z,4.25
2023-01-06T07:29:35.733Z,2.63
2023-01-06T07:32:06.821Z,2.92
2023-01-06T07:34:36.227Z,2.15
2023-01-06T07:37:04.889Z,2.25
2023-01-06T07:39:33.638Z,2.35
2023-01-06T07:42:02.283Z,2.42
2023-01-06T07:44:30.892Z,1.88
2023-01-06T07:46:59.541Z,2.08
2023-01-06T07:49:29.573Z,3.78
2023-01-06T07:51:58.375Z,2.03
2023-01-06T07:54:27.039Z,2.58
2023-01-06T07:56:55.797Z,2.38
2023-01-06T07:59:24.322Z,2.20
2023-01-06T08:01:53.128Z,2.30
2023-01-06T08:04:21.893Z,2.35
2023-01-06T08:06:51.820Z,2.78
2023-01-06T08:09:20.399Z,2.72
2023-01-06T08:11:49.057Z,2.35
2023-01-06T08:14:17.703Z,2.00
2023-01-06T08:16:46.237Z,2.40
2023-01-06T08:19:14.849Z,2.33
2023-01-06T08:21:43.533Z,2.47
2023-01-06T08:24:13.729Z,3.38
2023-01-06T08:26:42.605Z,2.40
2023-01-06T08:29:11.271Z,2.45
2023-01-06T08:31:39.996Z,2.45
2023-01-06T08:34:08.738Z,3.40
2023-01-06T08:36:37.414Z,5.10
2023-01-06T08:39:06.182Z,4.65
2023-01-06T08:41:36.408Z,6.13
2023-01-06T08:44:04.940Z,4.45
2023-01-06T08:46:36.373Z,3.55
2023-01-06T08:49:05.147Z,2.58
2023-01-06T08:51:34.933Z,3.05
2023-01-06T08:54:03.786Z,6.07
2023-01-06T08:56:32.801Z,3.47
2023-01-06T08:59:03.771Z,3.22
2023-01-06T09:01:34.048Z,4.07
2023-01-06T09:04:04.233Z,4.32
2023-01-06T09:06:32.987Z,6.65
2023-01-06T09:09:01.786Z,4.13
2023-01-06T09:11:30.348Z,3.10
2023-01-06T09:13:59.243Z,4.47
2023-01-06T09:16:29.265Z,3.17
2023-01-06T09:18:58.139Z,3.50
2023-01-06T09:21:27.036Z,4.70
2023-01-06T09:23:55.650Z,4.55
2023-01-06T09:26:24.200Z,5.25
2023-01-06T09:28:52.868Z,3.75
2023-01-06T09:31:21.637Z,3.38
2023-01-06T09:33:51.658Z,3.08
2023-01-06T09:36:20.383Z,3.10
2023-01-06T09:38:49.030Z,4.40
2023-01-06T09:41:41.338Z,4.85
2023-01-06T09:44:12.863Z,3.72
2023-01-06T09:46:44.377Z,3.20
2023-01-06T09:49:24.709Z,3.10
2023-01-06T09:51:54.185Z,3.17
2023-01-06T09:54:24.204Z,4.13
2023-01-06T09:56:56.004Z,2.95
2023-01-06T09:59:27.697Z,2.92
2023-01-06T10:01:59.851Z,9.52
2023-01-06T10:04:31.297Z,4.38
2023-01-06T10:07:10.717Z,3.50
2023-01-06T10:09:47.073Z,4.60
2023-01-06T10:12:26.192Z,3.00
2023-01-06T10:14:59.397Z,6.47
2023-01-06T10:17:42.931Z,3.72
2023-01-06T10:20:50.730Z,4.45
2023-01-06T10:23:46.789Z,2.90
2023-01-06T10:26:18.103Z,3.58
2023-01-06T10:28:48.558Z,2.90
2023-01-06T10:31:18.738Z,5.38
2023-01-06T10:33:51.344Z,5.57
2023-01-06T10:36:24.280Z,2.88
2023-01-06T10:38:53.203Z,10.40
2023-01-06T10:41:25.922Z,6.70
2023-01-06T10:43:54.498Z,3.20
2023-01-06T10:46:23.274Z,3.83
2023-01-06T10:48:52.656Z,4.70
2023-01-06T10:51:38.007Z,7.85
2023-01-06T10:54:09.750Z,5.30
2023-01-06T10:56:39.494Z,2.97
2023-01-06T10:59:09.316Z,5.07
2023-01-06T11:01:50.285Z,4.18
2023-01-06T11:04:20.215Z,2.85
2023-01-06T11:06:53.378Z,6.45
2023-01-06T11:09:30.275Z,3.17
2023-01-06T11:12:00.776Z,4.10
2023-01-06T11:14:31.558Z,3.10
2023-01-06T11:17:02.389Z,3.45
2023-01-06T11:19:39.256Z,3.38
2023-01-06T11:22:35.493Z,3.60
2023-01-06T11:25:06.108Z,3.63
2023-01-06T11:27:34.712Z,3.00
2023-01-06T11:30:21.432Z,5.10
2023-01-06T11:32:50.203Z,3.45
2023-01-06T11:35:21.553Z,3.85
2023-01-06T11:37:51.748Z,3.50
2023-01-06T11:40:26.194Z,4.47
2023-01-06T11:42:56.398Z,4.65
2023-01-06T11:45:34.186Z,3.40
2023-01-06T11:48:03.333Z,3.13
2023-01-06T11:50:32.007Z,3.75
2023-01-06T11:53:02.416Z,3.15
2023-01-06T11:55:31.725Z,5.35
2023-01-06T11:58:04.166Z,3.10
2023-01-06T12:00:39.640Z,2.90
2023-01-06T12:03:15.880Z,2.72
2023-01-06T12:05:48.989Z,4.40
2023-01-06T12:08:21.454Z,3.25
2023-01-06T12:10:54.443Z,2.80
2023-01-06T12:13:23.940Z,3.17
2023-01-06T12:16:01.449Z,3.72
2023-01-06T12:18:31.820Z,3.28
2023-01-06T12:21:01.192Z,4.35
2023-01-06T12:23:33.443Z,3.20
2023-01-06T12:26:03.656Z,3.40
2023-01-06T12:28:34.421Z,3.97
2023-01-06T12:31:07.696Z,3.92
2023-01-06T12:33:39.471Z,3.60
2023-01-06T12:36:13.358Z,2.83
2023-01-06T12:38:49.942Z,3.40
2023-01-06T12:41:23.564Z,3.85
2023-01-06T12:43:55.600Z,4.25
2023-01-06T12:46:27.781Z,11.23
2023-01-06T12:48:58.334Z,2.92
2023-01-06T12:51:31.406Z,3.15
2023-01-06T12:54:03.571Z,3.80
2023-01-06T12:56:44.913Z,3.25
2023-01-06T12:59:20.088Z,5.03
2023-01-06T13:01:52.423Z,3.20
2023-01-06T13:05:04.472Z,3.17
2023-01-06T13:07:38.128Z,3.28
2023-01-06T13:10:17.402Z,3.05
2023-01-06T13:12:54.431Z,4.35
2023-01-06T13:15:26.986Z,3.63
2023-01-06T13:18:05.548Z,2.97
2023-01-06T13:20:36.527Z,3.88
2023-01-06T13:23:13.103Z,3.00
2023-01-06T13:26:11.007Z,3.20
2023-01-06T13:28:46.158Z,3.53
2023-01-06T13:31:42.031Z,5.55
2023-01-06T13:34:49.205Z,3.00
2023-01-06T13:37:41.646Z,2.95
2023-01-06T13:40:13.399Z,3.05
2023-01-06T13:42:46.500Z,3.33
2023-01-06T13:45:18.972Z,4.55
2023-01-06T13:47:47.885Z,3.35
2023-01-06T13:50:18.450Z,5.32
2023-01-06T13:52:47.059Z,4.72
2023-01-06T13:55:29.791Z,3.45
2023-01-06T13:58:00.130Z,4.30
2023-01-06T14:00:29.888Z,4.20
2023-01-06T14:03:24.310Z,3.80
2023-01-06T14:05:57.448Z,3.53
2023-01-06T14:08:29.456Z,5.82
2023-01-06T14:11:37.868Z,4.05
2023-01-06T14:14:09.224Z,7.70
2023-01-06T14:16:43.094Z,5.82
2023-01-06T14:19:17.642Z,9.13
2023-01-06T14:21:46.487Z,4.38
2023-01-06T14:24:28.478Z,20.30
2023-01-06T14:27:01.216Z,11.32
2023-01-06T14:30:05.054Z,8.95
2023-01-06T14:33:04.107Z,14.15
2023-01-06T14:35:37.491Z,27.40
2023-01-06T14:38:07.971Z,17.90
2023-01-06T14:40:40.173Z,14.93
2023-01-06T14:43:42.118Z,21.48
2023-01-06T14:46:19.251Z,22.75
2023-01-06T14:48:53.370Z,17.23
2023-01-06T14:51:23.083Z,23.60
2023-01-06T14:53:59.581Z,16.40
2023-01-06T14:56:30.153Z,19.95
2023-01-06T14:59:13.230Z,15.98
2023-01-06T15:01:44.930Z,19.52
2023-01-06T15:04:25.001Z,15.45
2023-01-06T15:07:13.995Z,20.35
2023-01-06T15:09:42.691Z,18.35
2023-01-06T15:12:27.390Z,15.00
2023-01-06T15:14:56.167Z,15.40
2023-01-06T15:17:26.269Z,18.10
2023-01-06T15:19:54.899Z,18.55
2023-01-06T15:22:26.848Z,16.92
2023-01-06T15:24:56.053Z,12.13
2023-01-06T15:27:24.695Z,12.75
2023-01-06T15:29:54.310Z,18.25
2023-01-06T15:32:27.296Z,11.23
2023-01-06T15:34:58.359Z,12.48
2023-01-06T15:37:30.303Z,10.35
2023-01-06T15:39:59.191Z,10.00
2023-01-06T15:42:28.276Z,13.05
2023-01-06T15:44:58.211Z,8.73
2023-01-06T15:47:35.094Z,9.32
2023-01-06T15:50:06.019Z,9.60
2023-01-06T15:52:35.914Z,9.05
2023-01-06T15:55:06.960Z,11.90
2023-01-06T15:57:38.238Z,10.63
2023-01-06T16:00:09.845Z,10.27
2023-01-06T16:02:40.022Z,11.20
2023-01-06T16:05:33.506Z,8.50
2023-01-06T16:08:03.875Z,11.63
2023-01-06T16:10:35.771Z,10.35
2023-01-06T16:13:28.138Z,8.98
2023-01-06T16:16:01.039Z,11.32
2023-01-06T16:18:33.941Z,9.18
2023-01-06T16:21:15.434Z,10.35
2023-01-06T16:23:47.815Z,10.35
2023-01-06T16:26:17.934Z,7.72
2023-01-06T16:28:51.052Z,8.52
2023-01-06T16:31:33.900Z,10.27
2023-01-06T16:34:26.756Z,8.98
2023-01-06T16:36:57.442Z,9.65
2023-01-06T16:39:26.187Z,10.07
2023-01-06T16:42:41.044Z,9.45
2023-01-06T16:45:24.177Z,8.93
2023-01-06T16:47:53.107Z,8.30
2023-01-06T16:50:27.834Z,10.25
2023-01-06T16:53:05.230Z,7.88
2023-01-06T16:55:34.160Z,8.65
2023-01-06T16:58:03.236Z,8.40
2023-01-06T17:00:31.899Z,8.05
2023-01-06T17:03:00.823Z,10.10
2023-01-06T17:05:31.260Z,9.63
2023-01-06T17:08:01.969Z,10.02
2023-01-06T17:10:30.867Z,12.50
2023-01-06T17:13:20.060Z,9.65
2023-01-06T17:15:49.182Z,9.18
2023-01-06T17:18:23.467Z,8.32
2023-01-06T17:20:55.970Z,8.50
2023-01-06T17:23:25.187Z,9.20
2023-01-06T17:25:56.925Z,10.00
2023-01-06T17:28:25.691Z,12.65
2023-01-06T17:30:54.295Z,11.55
2023-01-06T17:33:23.040Z,8.98
2023-01-06T17:35:55.975Z,8.57
2023-01-06T17:38:25.545Z,10.57
2023-01-06T17:40:54.961Z,8.23
2023-01-06T17:43:28.159Z,6.65
2023-01-06T17:45:56.894Z,9.25
2023-01-06T17:48:26.118Z,11.73
2023-01-06T17:50:56.978Z,7.13
2023-01-06T17:53:47.357Z,10.00
2023-01-06T17:56:16.039Z,8.57
2023-01-06T17:58:45.845Z,7.38
2023-01-06T18:01:18.083Z,6.85
2023-01-06T18:03:46.903Z,7.45
2023-01-06T18:06:30.669Z,8.55
2023-01-06T18:09:12.528Z,8.75
2023-01-06T18:11:42.297Z,10.93
2023-01-06T18:14:22.676Z,8.05
2023-01-06T18:16:54.367Z,7.85
2023-01-06T18:19:35.950Z,8.15
2023-01-06T18:22:14.282Z,10.05
2023-01-06T18:24:43.240Z,5.97
2023-01-06T18:27:18.258Z,9.40
2023-01-06T18:29:47.087Z,10.40
2023-01-06T18:32:28.058Z,14.68
2023-01-06T18:34:57.304Z,15.43
2023-01-06T18:37:29.994Z,21.48
2023-01-06T18:40:00.398Z,13.75
2023-01-06T18:42:31.607Z,11.27
2023-01-06T18:45:23.746Z,11.02
2023-01-06T18:47:55.854Z,11.98
2023-01-06T18:50:31.806Z,12.10
2023-01-06T18:53:05.782Z,12.80
2023-01-06T18:55:42.467Z,10.13
2023-01-06T18:58:34.107Z,10.95
2023-01-06T19:01:03.859Z,11.52
2023-01-06T19:03:37.448Z,9.93
2023-01-06T19:06:38.104Z,11.95
2023-01-06T19:09:20.543Z,12.38
2023-01-06T19:11:49.420Z,11.20
2023-01-06T19:14:19.766Z,11.18
2023-01-06T19:16:52.632Z,11.15
2023-01-06T19:19:28.075Z,14.85
2023-01-06T19:22:11.443Z,13.27
2023-01-06T19:24:54.073Z,8.88
2023-01-06T19:27:47.995Z,11.65
2023-01-06T19:30:42.136Z,10.45
2023-01-06T19:33:42.700Z,12.30
2023-01-06T19:36:47.073Z,10.85
2023-01-06T19:39:27.920Z,11.95
2023-01-06T19:42:00.687Z,10.18
2023-01-06T19:44:34.259Z,14.00
2023-01-06T19:47:12.787Z,10.88
2023-01-06T19:49:43.859Z,9.25
2023-01-06T19:52:28.274Z,9.82
2023-01-06T19:54:57.226Z,12.60
2023-01-06T19:57:29.506Z,9.93
2023-01-06T19:59:58.651Z,11.07
2023-01-06T20:02:30.132Z,12.80
2023-01-06T20:04:58.920Z,11.98
2023-01-06T20:07:27.838Z,16.98
2023-01-06T20:09:56.513Z,15.77
2023-01-06T20:12:25.281Z,10.55
2023-01-06T20:14:55.388Z,14.50
2023-01-06T20:17:24.011Z,14.35
2023-01-06T20:19:52.880Z,12.38
2023-01-06T20:22:22.818Z,15.27
2023-01-06T20:24:51.473Z,12.23
2023-01-06T20:27:20.091Z,12.02
2023-01-06T20:29:48.854Z,13.02
2023-01-06T20:32:18.872Z,9.90
2023-01-06T20:34:47.530Z,15.10
2023-01-06T20:37:16.388Z,10.70
2023-01-06T20:39:45.004Z,13.25
2023-01-06T20:42:13.687Z,12.75
2023-01-06T20:44:44.006Z,14.43
2023-01-06T20:47:12.701Z,13.75
2023-01-06T20:49:42.701Z,13.73
2023-01-06T20:52:11.467Z,11.35
2023-01-06T20:54:40.037Z,14.27
2023-01-06T20:57:08.794Z,10.95
2023-01-06T20:59:37.566Z,14.90
2023-01-06T21:02:06.321Z,11.98
2023-01-06T21:04:34.966Z,11.10
2023-01-06T21:07:05.050Z,11.52
2023-01-06T21:09:33.601Z,11.35
2023-01-06T21:12:02.560Z,11.15
2023-01-06T21:14:32.397Z,11.32
2023-01-06T21:17:01.219Z,12.98
2023-01-06T21:19:30.085Z,13.43
2023-01-06T21:21:58.928Z,17.35
2023-01-06T21:24:29.060Z,17.42
2023-01-06T21:26:57.701Z,18.35
2023-01-06T21:29:27.245Z,17.48
2023-01-06T21:31:55.931Z,17.48
2023-01-06T21:34:24.643Z,16.42
2023-01-06T21:36:53.594Z,17.05
2023-01-06T21:39:22.513Z,14.40
2023-01-06T21:42:10.242Z,11.88
2023-01-06T21:44:39.240Z,16.55
2023-01-06T21:47:08.165Z,14.10
2023-01-06T21:49:37.140Z,14.48
2023-01-06T21:52:07.131Z,13.15
2023-01-06T21:54:35.977Z,15.35
2023-01-06T21:57:06.336Z,15.20
2023-01-06T21:59:35.349Z,15.25
2023-01-06T22:02:04.195Z,13.98
2023-01-06T22:04:33.016Z,15.50
2023-01-06T22:07:02.858Z,12.05
2023-01-06T22:09:31.736Z,13.45
2023-01-06T22:12:01.196Z,14.35
2023-01-06T22:14:31.406Z,11.00
2023-01-06T22:17:01.070Z,11.10
2023-01-06T22:19:29.943Z,10.82
2023-01-06T22:21:59.041Z,15.00
2023-01-06T22:24:27.641Z,11.68
2023-01-06T22:26:56.302Z,13.52
2023-01-06T22:29:24.921Z,10.85
2023-01-06T22:31:54.864Z,13.07
2023-01-06T22:34:23.590Z,10.98
2023-01-06T22:36:52.402Z,11.30
2023-01-06T22:39:21.181Z,11.13
2023-01-06T22:41:49.812Z,13.15
2023-01-06T22:44:18.504Z,12.80
2023-01-06T22:46:47.138Z,13.13
2023-01-06T22:49:17.204Z,11.00
2023-01-06T22:51:45.758Z,11.20
2023-01-06T22:54:14.311Z,9.73
2023-01-06T22:56:43.011Z,10.43
2023-01-06T22:59:11.659Z,14.73
2023-01-06T23:01:40.383Z,10.45
2023-01-06T23:04:09.092Z,8.35
2023-01-06T23:06:39.301Z,10.95
2023-01-06T23:09:07.842Z,11.60
2023-01-06T23:11:41.650Z,10.55
2023-01-06T23:14:11.101Z,22.63
2023-01-06T23:16:41.114Z,20.25
2023-01-06T23:19:12.985Z,22.38
2023-01-06T23:21:44.613Z,23.20
2023-01-06T23:24:13.327Z,22.15
2023-01-06T23:26:43.328Z,22.45
2023-01-06T23:29:12.061Z,21.25
2023-01-06T23:31:43.150Z,20.98
2023-01-06T23:34:14.713Z,24.42
2023-01-06T23:36:44.960Z,25.98
2023-01-06T23:39:15.057Z,22.25
2023-01-06T23:41:43.591Z,19.77
2023-01-06T23:44:14.761Z,24.90
2023-01-06T23:46:43.661Z,16.98
2023-01-06T23:49:13.666Z,13.50
2023-01-06T23:51:42.199Z,18.17
2023-01-06T23:54:13.109Z,22.40
2023-01-06T23:56:41.896Z,14.63
2023-01-06T23:59:12.553Z,16.70
